Weather History for KF05 - June, 2013

Change the Weather History Date:

Friday, June 21, 2013

  Actual Average Record
Temperature  
Mean Temperature 88 °F -  
Max Temperature 99 °F - - ()
Min Temperature 78 °F - - ()
Cooling Degree Days 23    
Growing Degree Days 38 (Base 50)    
Moisture  
Dew Point 63 °F    
Average Humidity 44    
Maximum Humidity 61    
Minimum Humidity 26    
Precipitation  
Precipitation 0.00 in - - ()
Sea Level Pressure  
Sea Level Pressure 29.96 in    
Wind  
Wind Speed 14 mph (South)    
Max Wind Speed 22 mph    
Max Gust Speed 28 mph    
Visibility 10 miles    
Events      
T = Trace of Precipitation, MM = Missing Value Source: NWS Daily Summary

Daily Weather History Graph

Daily Weather History Graph

Search for Another Location

Airport or City:

Trip Planner

Search our weather history database for the weather conditions in past years. The results will help you decide how hot, cold, wet, or windy it might be!

Date:

Astronomy

Jun. 21, 2013 Rise Set
Actual Time 6:25 AM CDT 8:52 PM CDT
Civil Twilight 5:56 AM CDT 9:21 PM CDT
Nautical Twilight 5:20 AM CDT 9:57 PM CDT
Astronomical Twilight 4:40 AM CDT 10:37 PM CDT
Moon 7:07 PM CDT (6/21) 4:38 AM CDT (6/21)
Length of Visible Light 15h 25m
Length of Day
14h 26m
Waxing Gibbous, 95% of the Moon is Illuminated
Jun 21
Waxing Gibbous
Jun 23
Full
Jun 29
Last Quarter
Jul 8
New
Jul 15
First Quarter

Hourly Weather History & Observations

Time (CDT) Temp. Heat Index Dew Point Humidity Pressure Visibility Wind Dir Wind Speed Gust Speed Precip Events Conditions
12:15 AM 85.1 °F 86.1 °F 63.5 °F 48% 29.97 in 10.0 mi South 12.7 mph - N/A   Clear
12:35 AM 84.6 °F 85.6 °F 63.7 °F 49% 29.98 in 10.0 mi South 13.8 mph - N/A   Clear
12:55 AM 83.8 °F 85.1 °F 63.7 °F 51% 29.98 in 10.0 mi South 10.4 mph - N/A   Clear
1:15 AM 83.8 °F 84.9 °F 63.1 °F 50% 29.98 in 10.0 mi SSW 11.5 mph - N/A   Clear
1:35 AM 83.3 °F 84.4 °F 63.5 °F 51% 29.98 in 10.0 mi South 9.2 mph - N/A   Clear
1:55 AM 82.6 °F 83.8 °F 63.5 °F 52% 29.97 in 10.0 mi South 9.2 mph - N/A   Clear
2:15 AM 82.6 °F 83.8 °F 63.5 °F 52% 29.96 in 10.0 mi South 10.4 mph - N/A   Clear
2:35 AM 82.4 °F 83.7 °F 63.7 °F 53% 29.96 in 10.0 mi South 9.2 mph - N/A   Clear
2:55 AM 81.7 °F 83.0 °F 63.7 °F 54% 29.95 in 10.0 mi South 10.4 mph - N/A   Clear
3:15 AM 80.4 °F 82.1 °F 64.2 °F 58% 29.94 in 10.0 mi SSE 8.1 mph - N/A   Clear
3:35 AM 79.0 °F - 64.4 °F 61% 29.94 in 10.0 mi SSE 9.2 mph - N/A   Clear
3:55 AM 79.0 °F - 63.9 °F 60% 29.93 in 10.0 mi South 13.8 mph - N/A   Clear
4:35 AM 80.8 °F 82.0 °F 62.6 °F 54% 29.92 in 10.0 mi South 15.0 mph - N/A   Clear
5:17 AM 80.6 °F 81.8 °F 62.6 °F 54% 29.94 in 10.0 mi South 13.8 mph - N/A   Clear
5:37 AM 80.6 °F 81.8 °F 62.6 °F 54% 29.94 in 10.0 mi South 15.0 mph - N/A   Clear
5:57 AM 80.6 °F 81.8 °F 62.6 °F 54% 29.95 in 10.0 mi South 12.7 mph - N/A   Clear
6:17 AM 78.8 °F - 62.6 °F 57% 29.96 in 10.0 mi South 12.7 mph - N/A   Clear
6:37 AM 78.8 °F - 62.6 °F 57% 29.96 in 10.0 mi South 11.5 mph - N/A   Clear
6:57 AM 78.8 °F - 64.4 °F 61% 29.96 in 10.0 mi South 11.5 mph - N/A   Clear
7:17 AM 78.8 °F - 64.4 °F 61% 29.97 in 10.0 mi South 13.8 mph - N/A   Clear
7:37 AM 80.6 °F 82.3 °F 64.4 °F 58% 29.98 in 10.0 mi South 15.0 mph - N/A   Clear
7:55 AM 80.8 °F 82.5 °F 64.8 °F 58% 29.98 in 10.0 mi South 13.8 mph 18.4 mph N/A   Clear
7:57 AM 80.6 °F 82.3 °F 64.4 °F 58% 29.98 in 10.0 mi South 16.1 mph - N/A   Clear
8:15 AM 81.9 °F 83.7 °F 65.3 °F 57% 29.99 in 10.0 mi South 16.1 mph - N/A   Clear
8:35 AM 83.1 °F 85.0 °F 65.7 °F 55% 29.99 in 10.0 mi South 15.0 mph - N/A   Clear
8:55 AM 84.4 °F 86.8 °F 66.4 °F 55% 29.99 in 10.0 mi South 16.1 mph - N/A   Clear
9:15 AM 85.8 °F 88.5 °F 66.7 °F 53% 30.00 in 10.0 mi South 17.3 mph 23.0 mph N/A   Clear
9:35 AM 86.4 °F 89.0 °F 66.7 °F 52% 30.01 in 10.0 mi SSW 16.1 mph 24.2 mph N/A   Clear
9:55 AM 86.2 °F 88.8 °F 66.9 °F 52% 30.02 in 10.0 mi SSW 16.1 mph - N/A   Clear
10:15 AM 87.3 °F 90.2 °F 66.9 °F 51% 30.02 in 10.0 mi SSW 17.3 mph 23.0 mph N/A   Clear
10:35 AM 87.8 °F 90.7 °F 67.1 °F 50% 30.02 in 10.0 mi SSW 15.0 mph 23.0 mph N/A   Clear
10:55 AM 88.3 °F 91.2 °F 67.1 °F 49% 30.02 in 10.0 mi SSW 17.3 mph 23.0 mph N/A   Clear
11:15 AM 88.5 °F 91.6 °F 67.1 °F 49% 30.03 in 10.0 mi SSW 15.0 mph - N/A   Clear
11:35 AM 88.0 °F 91.0 °F 67.5 °F 50% 30.03 in 10.0 mi SSW 15.0 mph 21.9 mph N/A   Clear
11:55 AM 90.1 °F 93.5 °F 67.5 °F 47% 30.03 in 10.0 mi SSW 16.1 mph 24.2 mph N/A   Clear
12:35 PM 91.9 °F 95.4 °F 67.1 °F 44% 30.02 in 10.0 mi SSW 15.0 mph 20.7 mph N/A   Scattered Clouds
12:55 PM 92.1 °F 94.4 °F 65.5 °F 41% 30.02 in 10.0 mi SSW 17.3 mph 24.2 mph N/A   Scattered Clouds
1:15 PM 92.5 °F 94.6 °F 64.8 °F 40% 30.01 in 10.0 mi SSW 18.4 mph 24.2 mph N/A   Scattered Clouds
1:38 PM 95.0 °F 97.0 °F 64.4 °F 36% 30.00 in 10.0 mi South 16.1 mph 25.3 mph N/A   Scattered Clouds
1:55 PM 95.0 °F 96.5 °F 63.7 °F 35% 30.00 in 10.0 mi South 12.7 mph 26.5 mph N/A   Scattered Clouds
2:15 PM 95.5 °F 96.9 °F 63.1 °F 34% 29.99 in 10.0 mi South 20.7 mph 26.5 mph N/A   Clear
2:35 PM 95.7 °F 97.2 °F 63.1 °F 34% 29.99 in 10.0 mi SSW 16.1 mph 27.6 mph N/A   Clear
2:55 PM 95.7 °F 97.2 °F 63.5 °F 34% 29.98 in 10.0 mi SSW 17.3 mph 23.0 mph N/A   Clear
3:15 PM 96.1 °F 97.8 °F 63.7 °F 34% 29.96 in 10.0 mi South 13.8 mph - N/A   Scattered Clouds
3:35 PM 96.8 °F 98.5 °F 63.7 °F 33% 29.96 in 10.0 mi South 13.8 mph 19.6 mph N/A   Scattered Clouds
4:15 PM 97.9 °F 98.3 °F 61.0 °F 29% 29.94 in 10.0 mi South 17.3 mph - N/A   Clear
4:35 PM 98.2 °F 98.4 °F 60.1 °F 28% 29.93 in 10.0 mi South 19.6 mph 25.3 mph N/A   Clear
4:55 PM 98.8 °F 99.2 °F 60.1 °F 28% 29.93 in 10.0 mi South 18.4 mph 25.3 mph N/A   Clear
5:15 PM 98.8 °F 98.3 °F 58.8 °F 26% 29.92 in 10.0 mi SSE 18.4 mph 25.3 mph N/A   Clear
5:35 PM 98.4 °F 97.8 °F 58.5 °F 26% 29.91 in 10.0 mi South 16.1 mph 27.6 mph N/A   Scattered Clouds
5:55 PM 98.2 °F 97.5 °F 58.3 °F 26% 29.91 in 10.0 mi SSE 20.7 mph 25.3 mph N/A   Clear
6:35 PM 97.5 °F 96.9 °F 58.3 °F 27% 29.90 in 10.0 mi South 21.9 mph 25.3 mph N/A   Scattered Clouds
7:35 PM 96.1 °F 95.2 °F 58.3 °F 28% 29.90 in 10.0 mi South 20.7 mph 26.5 mph N/A   Clear
7:57 PM 95.0 °F 93.7 °F 57.2 °F 28% 29.91 in 10.0 mi SSE 17.3 mph 20.7 mph N/A   Clear
8:15 PM 94.5 °F 93.3 °F 57.4 °F 29% 29.90 in 10.0 mi South 17.3 mph - N/A   Clear
8:35 PM 93.6 °F 92.1 °F 56.7 °F 29% 29.90 in 10.0 mi South 13.8 mph - N/A   Clear
8:55 PM 92.3 °F 91.0 °F 57.2 °F 31% 29.91 in 10.0 mi SSE 12.7 mph - N/A   Clear
9:15 PM 91.0 °F 90.0 °F 58.5 °F 33% 29.91 in 10.0 mi SE 11.5 mph - N/A   Clear
9:35 PM 90.1 °F 89.1 °F 58.5 °F 34% 29.91 in 10.0 mi SSE 11.5 mph - N/A   Clear
9:55 PM 89.4 °F 88.4 °F 58.1 °F 35% 29.92 in 10.0 mi SSE 10.4 mph - N/A   Clear
10:15 PM 88.9 °F 87.7 °F 57.7 °F 35% 29.92 in 10.0 mi SSE 11.5 mph - N/A   Clear
10:35 PM 88.5 °F 87.3 °F 57.4 °F 35% 29.92 in 10.0 mi SSE 12.7 mph - N/A   Clear
10:55 PM 88.0 °F 86.9 °F 57.6 °F 36% 29.92 in 10.0 mi SSE 12.7 mph - N/A   Clear
11:15 PM 87.4 °F 86.3 °F 57.4 °F 36% 29.93 in 10.0 mi SSE 13.8 mph - N/A   Clear
11:35 PM 87.3 °F 86.1 °F 57.4 °F 36% 29.93 in 10.0 mi SSE 15.0 mph - N/A   Clear
11:55 PM 87.3 °F 86.1 °F 57.2 °F 36% 29.93 in 10.0 mi South 17.3 mph - N/A   Clear